createdAt,value
2022-08-12T00:04:14.903Z,3
2022-08-12T00:10:34.911Z,3
2022-08-12T00:16:57.996Z,2.4
2022-08-12T00:23:17.883Z,2.4
2022-08-12T00:29:43.608Z,3.6
2022-08-12T00:36:00.948Z,3.6
2022-08-12T00:42:23.897Z,2.9
2022-08-12T00:48:43.926Z,2.9
2022-08-12T00:55:06.936Z,3.2
2022-08-12T01:01:26.968Z,3.2
2022-08-12T01:07:49.970Z,2.9
2022-08-12T01:14:09.907Z,2.9
2022-08-12T01:20:32.919Z,3.3
2022-08-12T01:26:52.942Z,3.3
2022-08-12T01:33:15.883Z,3
2022-08-12T01:39:35.989Z,3
2022-08-12T01:45:58.921Z,2.9
2022-08-12T01:52:21.971Z,2.9
2022-08-12T01:58:41.955Z,3.1
2022-08-12T02:05:01.897Z,3.1
2022-08-12T02:11:24.938Z,3.8
2022-08-12T02:17:55.011Z,3.8
2022-08-12T02:24:07.946Z,3.4
2022-08-12T02:30:33.137Z,3.4
2022-08-12T02:36:50.901Z,3.8
2022-08-12T02:43:10.960Z,3.8
2022-08-12T02:49:33.914Z,4.5
2022-08-12T02:55:53.915Z,4.5
2022-08-12T03:02:16.939Z,4.6
2022-08-12T03:08:36.892Z,4.6
2022-08-12T03:14:59.975Z,3.6
2022-08-12T03:21:52.550Z,3.6
2022-08-12T03:27:42.950Z,2.9
2022-08-12T03:50:30.826Z,4
2022-08-12T03:56:50.928Z,4
2022-08-12T04:03:13.943Z,11.6
2022-08-12T04:09:33.923Z,11.6
2022-08-12T04:15:56.933Z,4
2022-08-12T04:22:16.951Z,4
2022-08-12T04:28:39.922Z,2.1
2022-08-12T04:34:59.989Z,2.1
2022-08-12T04:41:23.010Z,3.4
2022-08-12T04:47:42.914Z,3.4
2022-08-12T04:54:06.101Z,6
2022-08-12T05:00:25.955Z,6
2022-08-12T05:06:49.035Z,2.8
2022-08-12T05:13:08.981Z,2.8
2022-08-12T05:19:31.966Z,5.9
2022-08-12T05:25:52.014Z,5.9
2022-08-12T05:32:15.018Z,3.7
2022-08-12T05:38:35.018Z,3.7
2022-08-12T05:44:57.898Z,6.2
2022-08-12T05:51:18.019Z,6.2
2022-08-12T05:57:40.918Z,2.6
2022-08-12T06:04:00.901Z,2.6
2022-08-12T06:10:31.906Z,3
2022-08-12T06:16:43.952Z,3
2022-08-12T06:23:06.938Z,3.2
2022-08-12T06:29:35.912Z,3.2
2022-08-12T06:35:50.320Z,4.6
2022-08-12T06:42:32.684Z,4.6
2022-08-12T06:48:32.901Z,4.5
2022-08-12T06:54:52.939Z,4.5
2022-08-12T07:01:15.919Z,2.6
2022-08-12T07:07:35.891Z,2.6
2022-08-12T07:14:02.738Z,1.8
2022-08-12T07:20:36.202Z,1.8
2022-08-12T07:26:43.761Z,2.1
2022-08-12T07:33:01.958Z,2.1
2022-08-12T07:39:24.915Z,1.6
2022-08-12T07:45:44.930Z,1.6
2022-08-12T07:52:07.915Z,2.3
2022-08-12T07:58:27.927Z,2.3
2022-08-12T08:04:50.899Z,7.1
2022-08-12T08:11:10.896Z,7.1
2022-08-12T08:17:33.950Z,1.5
2022-08-12T08:23:56.571Z,1.5
2022-08-12T08:30:16.905Z,3
2022-08-12T08:36:36.967Z,3
2022-08-12T08:42:59.907Z,2.2
2022-08-12T08:49:19.960Z,2.2
2022-08-12T09:02:03.038Z,1.7
2022-08-12T09:18:14.412Z,2.3
2022-08-12T09:24:33.909Z,2.3
2022-08-12T09:30:58.868Z,2.3
2022-08-12T09:37:19.073Z,2.3
2022-08-12T09:43:46.956Z,0.8
2022-08-12T09:49:59.930Z,0.8
2022-08-12T09:56:56.762Z,0.9
2022-08-12T10:02:48.685Z,0.9
2022-08-12T10:09:05.937Z,4
2022-08-12T10:16:01.008Z,4
2022-08-12T10:21:49.009Z,0.6
2022-08-12T10:28:16.274Z,0.6
2022-08-12T10:34:31.941Z,1.4
2022-08-12T10:40:52.075Z,1.4
2022-08-12T10:47:25.798Z,1.1
2022-08-12T10:53:43.751Z,1.1
2022-08-12T11:00:03.827Z,11.3
2022-08-12T11:07:03.857Z,11.3
2022-08-12T11:12:57.350Z,0.8
2022-08-12T11:19:02.549Z,0.8
2022-08-12T11:25:23.924Z,0.3
2022-08-12T11:31:56.489Z,0.3
2022-08-12T11:38:09.676Z,0.7
2022-08-12T11:44:35.731Z,0.7
2022-08-12T11:50:52.901Z,1.4
2022-08-12T11:57:38.518Z,1.4
2022-08-12T12:03:40.403Z,0.7
2022-08-12T12:09:56.223Z,0.7
2022-08-12T12:16:18.883Z,18.7
2022-08-12T12:22:38.934Z,18.7
2022-08-12T12:29:03.348Z,0.9
2022-08-12T12:36:05.739Z,0.9
2022-08-12T12:42:44.475Z,0.7
2022-08-12T12:48:04.893Z,0.7
2022-08-12T12:54:29.046Z,2.5
2022-08-12T13:00:50.190Z,2.5
2022-08-12T13:07:10.912Z,0.6
2022-08-12T13:14:08.389Z,0.6
2022-08-12T13:19:53.900Z,0.8
2022-08-12T13:26:14.499Z,0.8
2022-08-12T13:32:36.926Z,0.8
2022-08-12T13:38:56.913Z,0.8
2022-08-12T13:45:19.915Z,1.6
2022-08-12T13:51:40.646Z,1.6
2022-08-12T13:58:03.079Z,1.5
2022-08-12T14:04:22.918Z,1.5
2022-08-12T14:10:46.375Z,0.3
2022-08-12T14:17:08.210Z,0.3
2022-08-12T14:24:01.712Z,0.7
2022-08-12T14:29:56.379Z,0.7
2022-08-12T14:36:12.749Z,7.6
2022-08-12T14:59:20.743Z,2.5
2022-08-12T15:06:06.802Z,2.5
2022-08-12T15:12:03.609Z,2.5
2022-08-12T15:18:21.312Z,2.5
2022-08-12T15:24:41.912Z,0.3
2022-08-12T15:31:01.925Z,0.3
2022-08-12T15:37:59.090Z,28.7
2022-08-12T15:44:14.108Z,28.7
2022-08-12T15:50:07.910Z,0.7
2022-08-12T15:56:29.215Z,0.7
2022-08-12T16:02:51.292Z,5.3
2022-08-12T16:09:10.896Z,5.3
2022-08-12T16:15:35.327Z,9.9
2022-08-12T16:21:58.052Z,9.9
2022-08-12T16:28:16.909Z,1.2
2022-08-12T16:34:40.248Z,1.2
2022-08-12T16:40:59.900Z,0.4
2022-08-12T16:47:19.914Z,0.4
2022-08-12T16:53:43.514Z,2.2
2022-08-12T17:00:02.925Z,2.2
2022-08-12T17:06:27.317Z,22
2022-08-12T17:12:45.912Z,22
2022-08-12T17:19:09.699Z,0.9
2022-08-12T17:25:29.082Z,0.9
2022-08-12T17:31:59.468Z,0.2
2022-08-12T17:38:12.139Z,0.2
2022-08-12T17:44:34.918Z,1.2
2022-08-12T17:50:54.909Z,1.2
2022-08-12T17:57:17.891Z,1.8
2022-08-12T18:03:57.266Z,1.8
2022-08-12T18:10:00.964Z,5
2022-08-12T18:16:23.186Z,5
2022-08-12T18:22:44.257Z,9
2022-08-12T18:29:03.931Z,9
2022-08-12T18:35:29.870Z,8.1
2022-08-12T18:41:46.882Z,8.1
2022-08-12T18:48:09.929Z,15.8
2022-08-12T18:54:29.984Z,15.8
2022-08-12T19:00:52.923Z,12
2022-08-12T19:07:12.954Z,12
2022-08-12T19:13:35.885Z,11.1
2022-08-12T19:19:56.082Z,11.1
2022-08-12T19:26:19.612Z,32
2022-08-12T19:32:38.891Z,32
2022-08-12T19:39:02.041Z,11.8
2022-08-12T19:45:22.171Z,11.8
2022-08-12T19:51:44.913Z,11.8
2022-08-12T19:58:05.051Z,11.8
2022-08-12T20:04:27.973Z,11.4
2022-08-12T20:10:50.955Z,11.4
2022-08-12T20:17:12.605Z,10.3
2022-08-12T20:33:56.563Z,11.5
2022-08-12T20:40:18.447Z,17.1
2022-08-12T20:46:37.973Z,17.1
2022-08-12T20:53:00.925Z,17.1
2022-08-12T20:59:21.514Z,17.1
2022-08-12T21:06:10.451Z,9.8
2022-08-12T21:12:03.903Z,9.8
2022-08-12T21:18:27.464Z,7.7
2022-08-12T21:24:47.015Z,7.7
2022-08-12T21:31:11.947Z,8.2
2022-08-12T21:37:29.888Z,8.2
2022-08-12T21:43:52.957Z,8.2
2022-08-12T21:50:13.437Z,8.2
2022-08-12T21:56:35.928Z,7.1
2022-08-12T22:22:07.923Z,10.9
2022-08-12T22:28:27.948Z,10.9
2022-08-12T22:34:50.916Z,10.9
2022-08-12T22:41:10.886Z,10.9
2022-08-12T22:47:45.930Z,20.8
2022-08-12T22:53:53.915Z,20.8
2022-08-12T23:00:24.842Z,3.8
2022-08-12T23:06:36.919Z,3.8
2022-08-12T23:12:59.881Z,2.7
2022-08-12T23:19:23.287Z,2.7
2022-08-12T23:25:54.309Z,28.3
2022-08-12T23:32:04.113Z,28.3
2022-08-12T23:38:31.229Z,2.9
2022-08-12T23:44:45.915Z,2.9
2022-08-12T23:51:09.018Z,0.9
2022-08-12T23:57:51.253Z,0.9
